TimeCST,TemperatureF,Dew PointF,Humidity,Sea Level PressureIn,VisibilityMPH,Wind Direction,Wind SpeedMPH,Gust SpeedMPH,PrecipitationIn,Events,Conditions,WindDirDegrees,DateUTC
12:52 AM,45.0,36.0,71,30.26,10.0,SSE,9.2,-,N/A,,Clear,160,2013-11-11 06:52:00
1:52 AM,46.0,37.0,71,30.25,10.0,SE,3.5,-,N/A,,Mostly Cloudy,140,2013-11-11 07:52:00
2:52 AM,48.9,39.0,69,30.24,10.0,SSE,4.6,-,N/A,,Overcast,160,2013-11-11 08:52:00
3:52 AM,48.0,39.9,74,30.24,10.0,South,5.8,-,N/A,,Overcast,180,2013-11-11 09:52:00
4:52 AM,48.9,39.9,71,30.24,10.0,SSE,8.1,-,N/A,,Overcast,160,2013-11-11 10:52:00
5:52 AM,48.9,39.0,69,30.23,10.0,South,10.4,-,N/A,,Overcast,170,2013-11-11 11:52:00
6:52 AM,48.9,39.0,69,30.25,10.0,South,8.1,-,N/A,,Overcast,170,2013-11-11 12:52:00
7:52 AM,50.0,41.0,71,30.25,10.0,South,9.2,-,N/A,,Overcast,170,2013-11-11 13:52:00
8:52 AM,52.0,42.1,69,30.27,10.0,South,10.4,-,N/A,,Overcast,180,2013-11-11 14:52:00
9:52 AM,53.1,44.1,71,30.26,10.0,South,8.1,-,N/A,,Overcast,190,2013-11-11 15:52:00
10:52 AM,55.9,46.0,69,30.25,10.0,South,8.1,-,N/A,,Overcast,190,2013-11-11 16:52:00
11:52 AM,57.9,46.9,67,30.22,10.0,SSW,9.2,-,N/A,,Overcast,210,2013-11-11 17:52:00
12:52 PM,60.1,46.9,62,30.20,10.0,WSW,6.9,-,N/A,,Overcast,250,2013-11-11 18:52:00
1:52 PM,61.0,46.9,60,30.18,10.0,SW,8.1,-,N/A,,Overcast,230,2013-11-11 19:52:00
2:26 PM,61.0,46.9,60,30.18,10.0,West,11.5,-,N/A,,Overcast,260,2013-11-11 20:26:00
2:35 PM,61.0,46.9,60,30.18,10.0,West,9.2,-,N/A,,Overcast,260,2013-11-11 20:35:00
2:52 PM,61.0,48.0,62,30.18,10.0,West,9.2,-,N/A,,Overcast,260,2013-11-11 20:52:00
3:04 PM,61.0,48.0,62,30.18,10.0,West,6.9,-,N/A,,Overcast,270,2013-11-11 21:04:00
3:52 PM,60.1,48.0,64,30.18,10.0,WSW,6.9,-,N/A,,Overcast,240,2013-11-11 21:52:00
4:52 PM,60.1,48.9,67,30.19,10.0,West,5.8,-,N/A,,Overcast,280,2013-11-11 22:52:00
5:52 PM,59.0,50.0,72,30.21,10.0,WNW,8.1,-,N/A,,Overcast,290,2013-11-11 23:52:00
6:52 PM,57.0,51.1,81,30.23,10.0,WNW,6.9,-,N/A,,Overcast,300,2013-11-12 00:52:00
7:17 PM,50.0,48.0,93,30.26,6.0,North,21.9,-,0.00,Rain,Light Rain,350,2013-11-12 01:17:00
7:25 PM,48.0,46.0,93,30.27,6.0,North,20.7,29.9,0.00,Rain,Light Rain,360,2013-11-12 01:25:00
7:52 PM,46.0,44.1,93,30.31,7.0,North,21.9,31.1,0.00,Rain,Light Rain,360,2013-11-12 01:52:00
8:13 PM,44.1,43.0,96,30.32,5.0,North,18.4,-,0.00,Rain,Light Rain,360,2013-11-12 02:13:00
8:52 PM,42.1,39.9,92,30.35,6.0,North,20.7,-,0.00,Rain,Light Rain,10,2013-11-12 02:52:00
9:52 PM,39.9,37.0,89,30.40,8.0,NNE,17.3,31.1,0.00,,Overcast,20,2013-11-12 03:52:00
10:52 PM,39.0,36.0,89,30.43,10.0,NNE,20.7,28.8,N/A,,Overcast,20,2013-11-12 04:52:00
11:52 PM,37.0,34.0,89,30.46,9.0,NNE,13.8,-,0.00,,Overcast,20,2013-11-12 05:52:00